SBOSBO BJV / LTFE
Speedbird OnlineSpeedbird Online BJV / LTFE

Milas Bodrum International Airport
16:13 12°C

Location Bodrum, Turkey
Latitude: 37.25059890749999
Longitude: 27.6643009186
Web Wikipedia
Altitude 6 Meter / 21 Feet
Distance 2,676 KM / 1,663 Miles
from London.
Time Zone UTC +3 hours (Europe/Istanbul)
Codes IATA: BJV
ICAO: LTFE
Currency £1 equals TRY 23.20
Runways
RunwayLength (m)Surface
10L3000Concrete
10R2940Concrete
28L2940Concrete
28R3000Concrete
Radio
TypeDescriptionFrequency
APPMENDERES APP119.5
APPMENDERES APP119.775
ATISATIS128.5
GNDGND121.95
TWRTWR120.5
Live ATC
METAR LTFE 311250Z 33009KT 9999 FEW035 BKN100 12/M01 Q1008 NOSIG RMK RWY10 01009KT
TAF TAF LTFE 311040Z 3112/0112 35012KT 9999 FEW035 SCT100 BECMG 3113/3116 VRB02KT BECMG 3116/3118 CAVOK BECMG 0107/0110 35012KT
Weather As Of 31 Jan 2023 16:13
Description Broken clouds
Wind 17 km/h from North-West (330°)
Cloud Cover 75%
Precipitation Rain: none, Snow: none
Sunrise 08:13
Sunset 18:31
Lounges TAV Comfort Lounge, International Terminal



Support Speedbird Online

© 2017-2023 Speedbird Online